createdAt,value
2023-04-02T00:02:22.318Z,45.89
2023-04-02T00:05:16.497Z,46.45
2023-04-02T00:07:49.095Z,46.23
2023-04-02T00:10:37.032Z,46.43
2023-04-02T00:13:18.800Z,46.35
2023-04-02T00:15:52.009Z,45.69
2023-04-02T00:18:21.759Z,45.84
2023-04-02T00:21:16.540Z,46.06
2023-04-02T00:23:44.505Z,46.24
2023-04-02T00:26:34.357Z,46.31
2023-04-02T00:29:02.715Z,46.34
2023-04-02T00:31:29.952Z,45.87
2023-04-02T00:33:58.432Z,46.17
2023-04-02T00:36:30.314Z,46.05
2023-04-02T00:39:00.255Z,46.15
2023-04-02T00:41:30.011Z,45.79
2023-04-02T00:43:58.980Z,46.38
2023-04-02T00:46:30.913Z,46.29
2023-04-02T00:49:14.670Z,46.26
2023-04-02T00:51:46.781Z,45.76
2023-04-02T00:54:16.817Z,46.05
2023-04-02T00:56:46.411Z,45.90
2023-04-02T00:59:35.956Z,46.02
2023-04-02T01:02:18.714Z,46.18
2023-04-02T01:05:00.450Z,45.77
2023-04-02T01:07:37.655Z,46.32
2023-04-02T01:10:14.917Z,45.83
2023-04-02T01:12:58.713Z,45.91
2023-04-02T01:15:53.179Z,46.16
2023-04-02T01:18:56.873Z,46.20
2023-04-02T01:21:42.530Z,45.67
2023-04-02T01:24:13.896Z,46.09
2023-04-02T01:26:58.780Z,46.61
2023-04-02T01:29:39.200Z,46.11
2023-04-02T01:32:10.513Z,45.71
2023-04-02T01:34:38.170Z,46.44
2023-04-02T01:37:14.952Z,45.99
2023-04-02T01:40:13.238Z,46.39
2023-04-02T01:42:54.665Z,46.08
2023-04-02T01:45:23.277Z,46.00
2023-04-02T01:47:51.391Z,46.64
2023-04-02T01:50:31.713Z,46.45
2023-04-02T01:53:02.535Z,46.24
2023-04-02T01:55:42.312Z,46.58
2023-04-02T01:58:11.656Z,46.59
2023-04-02T02:00:56.728Z,46.35
2023-04-02T02:03:23.540Z,46.51
2023-04-02T02:05:51.252Z,46.10
2023-04-02T02:09:04.465Z,46.00
2023-04-02T02:11:33.628Z,45.99
2023-04-02T02:14:06.549Z,45.85
2023-04-02T02:16:41.947Z,46.25
2023-04-02T02:19:23.910Z,46.21
2023-04-02T02:21:54.258Z,46.28
2023-04-02T02:24:30.995Z,46.52
2023-04-02T02:27:37.982Z,46.05
2023-04-02T02:30:12.536Z,46.13
2023-04-02T02:32:53.793Z,46.17
2023-04-02T02:35:29.283Z,46.49
2023-04-02T02:38:06.517Z,46.01
2023-04-02T02:40:41.852Z,46.17
2023-04-02T02:43:12.492Z,46.23
2023-04-02T02:45:41.539Z,46.33
2023-04-02T02:48:14.411Z,45.97
2023-04-02T02:50:42.597Z,46.25
2023-04-02T02:53:24.217Z,46.14
2023-04-02T02:55:56.661Z,46.42
2023-04-02T02:58:31.608Z,46.53
2023-04-02T03:00:58.434Z,46.51
2023-04-02T03:03:28.877Z,46.04
2023-04-02T03:06:02.236Z,46.29
2023-04-02T03:08:36.956Z,45.80
2023-04-02T03:11:16.138Z,46.04
2023-04-02T03:13:49.200Z,46.31
2023-04-02T03:16:26.209Z,46.00
2023-04-02T03:19:08.593Z,46.46
2023-04-02T03:21:53.401Z,46.50
2023-04-02T03:24:30.614Z,46.20
2023-04-02T03:27:11.694Z,46.17
2023-04-02T03:29:46.612Z,46.08
2023-04-02T03:32:31.466Z,46.10
2023-04-02T03:35:03.694Z,45.86
2023-04-02T03:37:42.553Z,45.92
2023-04-02T03:40:18.380Z,46.13
2023-04-02T03:42:50.992Z,46.36
2023-04-02T03:45:24.238Z,46.27
2023-04-02T03:48:03.141Z,46.33
2023-04-02T03:50:47.662Z,46.51
2023-04-02T03:53:14.582Z,46.34
2023-04-02T03:55:42.865Z,45.74
2023-04-02T03:58:23.647Z,46.03
2023-04-02T04:01:17.592Z,45.86
2023-04-02T04:03:49.832Z,46.09
2023-04-02T04:06:30.561Z,46.12
2023-04-02T04:09:11.636Z,46.16
2023-04-02T04:11:48.734Z,46.33
2023-04-02T04:14:21.379Z,46.56
2023-04-02T04:16:54.405Z,46.04
2023-04-02T04:19:48.575Z,46.00
2023-04-02T04:22:19.237Z,46.33
2023-04-02T04:24:47.206Z,46.23
2023-04-02T04:27:43.890Z,45.90
2023-04-02T04:30:25.008Z,46.21
2023-04-02T04:32:58.741Z,46.63
2023-04-02T04:35:31.371Z,45.94
2023-04-02T04:38:12.359Z,46.13
2023-04-02T04:40:50.537Z,46.74
2023-04-02T04:43:25.050Z,45.89
2023-04-02T04:45:57.599Z,45.59
2023-04-02T04:48:39.157Z,45.76
2023-04-02T04:51:16.429Z,46.01
2023-04-02T04:53:49.015Z,46.03
2023-04-02T04:56:20.115Z,46.29
2023-04-02T04:59:02.547Z,46.58
2023-04-02T05:01:48.212Z,45.94
2023-04-02T05:04:25.113Z,46.71
2023-04-02T05:07:05.128Z,46.05
2023-04-02T05:09:54.023Z,46.63
2023-04-02T05:12:29.497Z,46.70
2023-04-02T05:15:14.496Z,45.95
2023-04-02T05:17:53.249Z,46.28
2023-04-02T05:20:40.950Z,46.26
2023-04-02T05:23:27.296Z,46.16
2023-04-02T05:26:17.107Z,46.25
2023-04-02T05:28:53.141Z,46.64
2023-04-02T05:31:43.209Z,46.37
2023-04-02T05:34:12.715Z,46.41
2023-04-02T05:36:40.145Z,46.64
2023-04-02T05:39:11.492Z,46.57
2023-04-02T05:41:43.980Z,46.09
2023-04-02T05:44:26.620Z,45.72
2023-04-02T05:47:01.771Z,46.19
2023-04-02T05:49:46.491Z,45.88
2023-04-02T05:52:20.078Z,46.27
2023-04-02T05:54:52.472Z,46.44
2023-04-02T05:57:39.587Z,46.33
2023-04-02T06:00:18.995Z,46.12
2023-04-02T06:02:55.115Z,46.32
2023-04-02T06:05:26.726Z,45.98
2023-04-02T06:07:59.104Z,45.94
2023-04-02T06:10:43.145Z,46.33
2023-04-02T06:13:16.271Z,46.09
2023-04-02T06:15:43.297Z,46.46
2023-04-02T06:18:20.650Z,46.05
2023-04-02T06:20:47.908Z,45.97
2023-04-02T06:23:41.992Z,46.26
2023-04-02T06:26:29.978Z,46.25
2023-04-02T06:29:11.306Z,45.95
2023-04-02T06:31:48.892Z,46.28
2023-04-02T06:34:22.172Z,46.10
2023-04-02T06:36:51.829Z,45.78
2023-04-02T06:39:23.123Z,46.20
2023-04-02T06:42:34.893Z,45.84
2023-04-02T06:45:02.181Z,46.21
2023-04-02T06:47:42.705Z,45.84
2023-04-02T06:50:32.091Z,45.98
2023-04-02T06:53:05.377Z,46.32
2023-04-02T06:55:51.123Z,46.36
2023-04-02T06:58:20.471Z,46.17
2023-04-02T07:00:49.753Z,45.72
2023-04-02T07:03:31.850Z,46.35
2023-04-02T07:06:02.251Z,46.21
2023-04-02T07:08:29.150Z,46.07
2023-04-02T07:10:56.570Z,46.17
2023-04-02T07:13:25.017Z,46.23
2023-04-02T07:15:54.245Z,46.06
2023-04-02T07:18:30.243Z,46.26
2023-04-02T07:20:57.659Z,45.89
2023-04-02T07:23:24.717Z,46.06
2023-04-02T07:25:54.746Z,46.14
2023-04-02T07:28:22.945Z,45.63
2023-04-02T07:30:51.406Z,46.01
2023-04-02T07:33:23.146Z,46.33
2023-04-02T07:35:51.781Z,46.12
2023-04-02T07:38:18.789Z,46.03
2023-04-02T07:40:45.897Z,46.35
2023-04-02T07:43:12.920Z,45.76
2023-04-02T07:45:39.710Z,46.44
2023-04-02T07:48:14.081Z,46.17
2023-04-02T07:50:41.637Z,46.31
2023-04-02T07:53:27.839Z,45.97
2023-04-02T07:55:54.706Z,46.30
2023-04-02T07:58:21.686Z,46.26
2023-04-02T08:00:48.638Z,46.13
2023-04-02T08:03:16.641Z,46.00
2023-04-02T08:05:43.610Z,46.13
2023-04-02T08:08:10.848Z,46.38
2023-04-02T08:10:37.708Z,46.46
2023-04-02T08:13:04.470Z,46.31
2023-04-02T08:15:31.528Z,46.29
2023-04-02T08:17:58.637Z,46.19
2023-04-02T08:20:25.791Z,46.40
2023-04-02T08:22:52.595Z,45.99
2023-04-02T08:25:19.381Z,46.11
2023-04-02T08:27:50.038Z,45.76
2023-04-02T08:30:21.570Z,46.08
2023-04-02T08:32:48.893Z,46.01
2023-04-02T08:35:17.106Z,46.30
2023-04-02T08:37:44.376Z,45.71
2023-04-02T08:40:34.800Z,46.60
2023-04-02T08:43:42.866Z,46.11
2023-04-02T08:46:35.628Z,46.19
2023-04-02T08:49:27.500Z,45.92
2023-04-02T08:52:25.668Z,46.33
2023-04-02T08:54:53.845Z,46.29
2023-04-02T08:57:40.860Z,46.05
2023-04-02T09:00:38.097Z,46.30
2023-04-02T09:03:21.921Z,46.13
2023-04-02T09:05:51.565Z,45.95
2023-04-02T09:08:21.862Z,45.95
2023-04-02T09:11:03.756Z,46.12
2023-04-02T09:13:34.819Z,46.19
2023-04-02T09:16:14.912Z,46.34
2023-04-02T09:18:44.023Z,46.13
2023-04-02T09:21:42.252Z,46.08
2023-04-02T09:24:13.479Z,45.95
2023-04-02T09:26:40.618Z,46.02
2023-04-02T09:29:13.809Z,46.36
2023-04-02T09:31:46.424Z,46.56
2023-04-02T09:34:34.563Z,46.92
2023-04-02T09:37:19.841Z,46.23
2023-04-02T09:39:46.983Z,46.02
2023-04-02T09:42:37.086Z,47.79
2023-04-02T09:45:21.244Z,46.03
2023-04-02T09:47:49.356Z,45.84
2023-04-02T09:50:33.853Z,45.85
2023-04-02T09:53:30.980Z,46.49
2023-04-02T09:56:15.157Z,46.07
2023-04-02T09:58:44.792Z,46.68
2023-04-02T10:01:41.041Z,46.43
2023-04-02T10:04:51.475Z,45.77
2023-04-02T10:07:46.368Z,45.83
2023-04-02T10:10:21.504Z,46.25
2023-04-02T10:12:59.788Z,46.01
2023-04-02T10:15:50.929Z,46.11
2023-04-02T10:19:20.323Z,45.80
2023-04-02T10:21:49.453Z,45.91
2023-04-02T10:24:18.242Z,45.92
2023-04-02T10:26:53.994Z,45.68
2023-04-02T10:29:23.577Z,45.35
2023-04-02T10:32:13.316Z,45.97
2023-04-02T10:34:51.064Z,45.70
2023-04-02T10:37:37.464Z,45.82
2023-04-02T10:40:17.863Z,45.68
2023-04-02T10:42:55.869Z,45.55
2023-04-02T10:45:46.520Z,45.59
2023-04-02T10:48:37.893Z,45.65
2023-04-02T10:51:14.206Z,46.20
2023-04-02T10:54:15.262Z,45.84
2023-04-02T10:56:50.696Z,45.37
2023-04-02T10:59:23.488Z,45.36
2023-04-02T11:01:52.890Z,45.32
2023-04-02T11:04:25.354Z,45.75
2023-04-02T11:07:07.174Z,46.02
2023-04-02T11:09:39.360Z,45.85
2023-04-02T11:12:08.627Z,46.03
2023-04-02T11:14:36.895Z,45.75
2023-04-02T11:17:03.776Z,45.67
2023-04-02T11:19:32.915Z,45.97
2023-04-02T11:22:20.577Z,46.21
2023-04-02T11:24:52.745Z,45.91
2023-04-02T11:27:31.568Z,45.92
2023-04-02T11:30:18.825Z,46.07
2023-04-02T11:32:49.820Z,45.71
2023-04-02T11:35:31.583Z,45.55
2023-04-02T11:38:22.961Z,45.71
2023-04-02T11:40:58.149Z,45.72
2023-04-02T11:43:33.899Z,45.84
2023-04-02T11:46:23.769Z,46.27
2023-04-02T11:48:50.822Z,45.78
2023-04-02T11:51:21.373Z,45.81
2023-04-02T11:53:50.368Z,45.80
2023-04-02T11:56:37.504Z,45.83
2023-04-02T11:59:26.673Z,45.58
2023-04-02T12:02:13.524Z,46.02
2023-04-02T12:05:01.479Z,45.78
2023-04-02T12:07:56.969Z,46.48
2023-04-02T12:10:32.508Z,46.01
2023-04-02T12:12:59.295Z,46.27
2023-04-02T12:15:38.343Z,46.01
2023-04-02T12:18:12.794Z,46.37
2023-04-02T12:20:47.902Z,45.99
2023-04-02T12:23:36.016Z,45.94
2023-04-02T12:26:07.492Z,46.04
2023-04-02T12:28:38.349Z,46.44
2023-04-02T12:31:08.370Z,46.26
2023-04-02T12:33:39.878Z,46.42
2023-04-02T12:36:19.515Z,46.67
2023-04-02T12:38:47.538Z,46.52
2023-04-02T12:41:27.304Z,46.27
2023-04-02T12:43:59.433Z,46.24
2023-04-02T12:46:27.562Z,46.39
2023-04-02T12:49:05.219Z,46.27
2023-04-02T12:51:32.276Z,46.58
2023-04-02T12:53:59.070Z,46.32
2023-04-02T12:56:26.072Z,46.22
2023-04-02T12:59:00.453Z,46.77
2023-04-02T13:01:29.405Z,46.39
2023-04-02T13:04:08.285Z,46.23
2023-04-02T13:06:36.539Z,46.32
2023-04-02T13:09:06.948Z,46.71
2023-04-02T13:11:36.314Z,46.41
2023-04-02T13:14:05.351Z,45.95
2023-04-02T13:16:40.979Z,46.75
2023-04-02T13:19:10.528Z,46.25
2023-04-02T13:21:37.164Z,46.71
2023-04-02T13:24:04.300Z,46.45
2023-04-02T13:26:31.330Z,46.26
2023-04-02T13:29:17.942Z,46.59
2023-04-02T13:31:44.768Z,46.54
2023-04-02T13:34:12.101Z,45.97
2023-04-02T13:36:38.834Z,46.24
2023-04-02T13:39:06.259Z,45.98
2023-04-02T13:41:40.324Z,46.57
2023-04-02T13:44:07.248Z,46.48
2023-04-02T13:46:34.912Z,46.18
2023-04-02T13:49:02.142Z,45.83
2023-04-02T13:51:40.185Z,46.15
2023-04-02T13:54:14.071Z,46.31
2023-04-02T13:56:41.542Z,46.32
2023-04-02T13:59:08.344Z,46.20
2023-04-02T14:01:35.324Z,46.45
2023-04-02T14:04:02.710Z,45.67
2023-04-02T14:07:02.710Z,46.23
2023-04-02T14:09:54.036Z,46.18
2023-04-02T14:12:58.581Z,46.08
2023-04-02T14:15:27.957Z,46.28
2023-04-02T14:18:06.884Z,46.64
2023-04-02T14:21:04.644Z,46.44
2023-04-02T14:24:07.356Z,46.11
2023-04-02T14:27:02.029Z,46.41
2023-04-02T14:29:45.737Z,46.23
2023-04-02T14:32:24.094Z,46.21
2023-04-02T14:35:09.457Z,46.47
2023-04-02T14:37:48.515Z,45.91
2023-04-02T14:40:46.637Z,46.55
2023-04-02T14:43:19.665Z,46.00
2023-04-02T14:46:04.735Z,46.59
2023-04-02T14:48:56.751Z,46.10
2023-04-02T14:51:41.764Z,46.00
2023-04-02T14:54:30.238Z,46.10
2023-04-02T14:57:21.632Z,46.04
2023-04-02T14:59:57.519Z,46.45
2023-04-02T15:02:36.127Z,46.21
2023-04-02T15:05:16.635Z,46.30
2023-04-02T15:08:25.994Z,46.28
2023-04-02T15:11:18.973Z,45.97
2023-04-02T15:13:52.869Z,46.29
2023-04-02T15:16:22.934Z,46.03
2023-04-02T15:18:52.666Z,46.44
2023-04-02T15:21:19.306Z,45.93
2023-04-02T15:24:04.234Z,45.91
2023-04-02T15:26:41.312Z,46.14
2023-04-02T15:29:29.326Z,46.42
2023-04-02T15:32:18.520Z,46.25
2023-04-02T15:34:52.641Z,46.62
2023-04-02T15:38:16.706Z,46.41
2023-04-02T15:40:50.235Z,45.91
2023-04-02T15:43:29.047Z,46.25
2023-04-02T15:46:13.464Z,45.79
2023-04-02T15:48:59.098Z,46.45
2023-04-02T15:51:46.400Z,46.29
2023-04-02T15:54:32.073Z,46.02
2023-04-02T15:57:17.613Z,46.55
2023-04-02T16:00:02.512Z,46.61
2023-04-02T16:03:02.709Z,46.30
2023-04-02T16:06:13.024Z,45.95
2023-04-02T16:09:07.857Z,46.23
2023-04-02T16:11:34.694Z,46.33
2023-04-02T16:14:09.680Z,46.20
2023-04-02T16:16:37.124Z,45.90
2023-04-02T16:19:04.034Z,46.19
2023-04-02T16:21:44.643Z,46.41
2023-04-02T16:24:12.824Z,46.31
2023-04-02T16:26:52.865Z,46.34
2023-04-02T16:29:55.439Z,45.89
2023-04-02T16:32:25.050Z,45.94
2023-04-02T16:35:32.401Z,46.65
2023-04-02T16:37:58.256Z,46.19
2023-04-02T16:41:07.070Z,46.60
2023-04-02T16:43:45.051Z,46.05
2023-04-02T16:46:40.831Z,45.92
2023-04-02T16:49:27.899Z,46.25
2023-04-02T16:52:23.045Z,45.86
2023-04-02T16:54:49.672Z,46.19
2023-04-02T16:57:25.106Z,45.71
2023-04-02T17:00:01.734Z,45.70
2023-04-02T17:02:43.060Z,45.83
2023-04-02T17:05:29.752Z,45.87
2023-04-02T17:08:11.468Z,46.38
2023-04-02T17:11:07.805Z,46.31
2023-04-02T17:13:42.292Z,46.07
2023-04-02T17:16:15.569Z,45.97
2023-04-02T17:18:44.171Z,45.78
2023-04-02T17:21:15.072Z,46.10
2023-04-02T17:23:56.035Z,45.65
2023-04-02T17:26:27.856Z,45.98
2023-04-02T17:28:55.563Z,46.06
2023-04-02T17:31:24.406Z,46.19
2023-04-02T17:33:51.487Z,46.33
2023-04-02T17:36:33.360Z,46.07
2023-04-02T17:39:11.435Z,45.93
2023-04-02T17:41:48.102Z,46.34
2023-04-02T17:44:44.725Z,46.06
2023-04-02T17:47:21.962Z,46.05
2023-04-02T17:49:54.727Z,46.37
2023-04-02T17:52:28.357Z,46.04
2023-04-02T17:55:27.494Z,46.01
2023-04-02T17:58:13.535Z,46.05
2023-04-02T18:00:58.010Z,46.48
2023-04-02T18:03:50.933Z,46.37
2023-04-02T18:06:43.384Z,46.04
2023-04-02T18:09:47.545Z,46.44
2023-04-02T18:12:30.934Z,45.68
2023-04-02T18:15:29.565Z,46.00
2023-04-02T18:18:10.996Z,45.74
2023-04-02T18:20:56.062Z,46.11
2023-04-02T18:23:43.956Z,45.55
2023-04-02T18:26:26.275Z,45.42
2023-04-02T18:29:16.790Z,45.58
2023-04-02T18:31:57.890Z,46.19
2023-04-02T18:35:01.368Z,46.33
2023-04-02T18:37:37.224Z,45.46
2023-04-02T18:40:34.958Z,45.85
2023-04-02T18:43:31.635Z,45.67
2023-04-02T18:46:23.219Z,45.35
2023-04-02T18:49:01.350Z,46.01
2023-04-02T18:51:33.862Z,45.71
2023-04-02T18:54:09.676Z,46.07
2023-04-02T18:56:41.383Z,45.85
2023-04-02T18:59:19.896Z,45.21
2023-04-02T19:01:51.508Z,45.98
2023-04-02T19:04:26.522Z,46.26
2023-04-02T19:07:16.171Z,46.81
2023-04-02T19:09:50.868Z,46.28
2023-04-02T19:12:23.753Z,46.59
2023-04-02T19:14:52.468Z,46.71
2023-04-02T19:17:39.808Z,46.45
2023-04-02T19:20:45.510Z,46.55
2023-04-02T19:23:47.477Z,46.40
2023-04-02T19:26:17.841Z,45.77
2023-04-02T19:29:24.523Z,46.20
2023-04-02T19:32:07.479Z,45.55
2023-04-02T19:34:51.236Z,45.57
2023-04-02T19:37:48.056Z,45.62
2023-04-02T19:40:34.958Z,46.06
2023-04-02T19:43:01.736Z,45.92
2023-04-02T19:45:49.330Z,45.50
2023-04-02T19:48:21.141Z,45.68
2023-04-02T19:50:49.408Z,45.97
2023-04-02T19:53:16.479Z,45.81
2023-04-02T19:55:44.547Z,45.91
2023-04-02T19:58:22.250Z,45.51
2023-04-02T20:00:49.273Z,45.61
2023-04-02T20:03:16.181Z,45.78
2023-04-02T20:05:43.187Z,45.30
2023-04-02T20:08:11.111Z,45.66
2023-04-02T20:10:38.593Z,45.81
2023-04-02T20:13:05.694Z,45.77
2023-04-02T20:15:33.072Z,45.39
2023-04-02T20:18:00.383Z,45.24
2023-04-02T20:20:28.377Z,44.95
2023-04-02T20:22:55.707Z,45.61
2023-04-02T20:25:26.795Z,45.41
2023-04-02T20:27:54.043Z,45.59
2023-04-02T20:30:21.228Z,45.71
2023-04-02T20:32:48.478Z,45.04
2023-04-02T20:35:15.916Z,45.30
2023-04-02T20:37:42.929Z,45.25
2023-04-02T20:40:11.107Z,45.26
2023-04-02T20:42:38.189Z,45.52
2023-04-02T20:45:06.550Z,45.54
2023-04-02T20:47:33.693Z,45.57
2023-04-02T20:50:00.665Z,44.99
2023-04-02T20:52:30.423Z,44.90
2023-04-02T20:54:57.932Z,45.57
2023-04-02T20:57:26.415Z,44.98
2023-04-02T20:59:54.796Z,44.90
2023-04-02T21:02:22.141Z,45.54
2023-04-02T21:04:49.109Z,45.22
2023-04-02T21:07:19.208Z,45.05
2023-04-02T21:09:46.482Z,45.37
2023-04-02T21:12:17.085Z,45.28
2023-04-02T21:14:44.450Z,45.38
2023-04-02T21:17:12.272Z,44.97
2023-04-02T21:19:39.174Z,45.15
2023-04-02T21:22:06.216Z,44.93
2023-04-02T21:24:33.149Z,45.48
2023-04-02T21:27:01.230Z,45.02
2023-04-02T21:29:30.998Z,44.76
2023-04-02T21:31:59.809Z,45.31
2023-04-02T21:34:31.176Z,44.83
2023-04-02T21:36:58.081Z,44.74
2023-04-02T21:39:25.192Z,45.26
2023-04-02T21:41:56.375Z,44.85
2023-04-02T21:44:24.562Z,45.17
2023-04-02T21:46:53.894Z,44.81
2023-04-02T21:49:25.759Z,44.69
2023-04-02T21:51:55.993Z,44.92
2023-04-02T21:54:22.760Z,45.29
2023-04-02T21:56:58.823Z,45.27
2023-04-02T21:59:31.816Z,45.09
2023-04-02T22:01:58.943Z,44.73
2023-04-02T22:04:26.876Z,45.09
2023-04-02T22:06:54.673Z,44.82
2023-04-02T22:09:24.687Z,45.29
2023-04-02T22:11:54.786Z,44.90
2023-04-02T22:14:21.969Z,44.93
2023-04-02T22:16:48.887Z,45.33
2023-04-02T22:19:17.385Z,45.33
2023-04-02T22:21:44.924Z,44.86
2023-04-02T22:24:18.355Z,45.13
2023-04-02T22:26:46.793Z,45.25
2023-04-02T22:29:14.256Z,44.50
2023-04-02T22:31:44.295Z,45.29
2023-04-02T22:34:11.449Z,44.20
2023-04-02T22:36:38.292Z,44.92
2023-04-02T22:39:07.125Z,44.81
2023-04-02T22:41:34.339Z,45.20
2023-04-02T22:44:04.154Z,44.87
2023-04-02T22:46:36.719Z,44.76
2023-04-02T22:49:19.670Z,44.67
2023-04-02T22:51:47.186Z,44.65
2023-04-02T22:54:14.136Z,44.70
2023-04-02T22:56:41.371Z,44.60
2023-04-02T22:59:08.449Z,44.74
2023-04-02T23:01:36.924Z,44.09
2023-04-02T23:04:05.525Z,44.38
2023-04-02T23:06:32.744Z,44.86
2023-04-02T23:08:59.772Z,44.46
2023-04-02T23:11:28.091Z,44.37
2023-04-02T23:14:13.738Z,44.51
2023-04-02T23:16:43.998Z,44.96
2023-04-02T23:19:19.745Z,44.76
2023-04-02T23:21:49.660Z,44.48
2023-04-02T23:24:19.769Z,44.33
2023-04-02T23:26:47.013Z,44.80
2023-04-02T23:29:30.568Z,44.98
2023-04-02T23:31:57.843Z,44.17
2023-04-02T23:34:28.046Z,44.30
2023-04-02T23:36:55.149Z,44.93
2023-04-02T23:39:23.354Z,44.31
2023-04-02T23:41:50.599Z,44.28
2023-04-02T23:44:24.217Z,44.78
2023-04-02T23:46:53.961Z,44.35
2023-04-02T23:49:29.789Z,44.36
2023-04-02T23:51:57.536Z,44.33
2023-04-02T23:54:27.576Z,44.63
2023-04-02T23:56:54.961Z,44.84
2023-04-02T23:59:22.171Z,44.61
